Nanson, North Dakota
Current Conditions -  °F | °C
As of 8:55 PM on Thursday 27 Nov 2014 (Local Time) from KRUG Reporting Station
Overcast Overcast  
Wind Chill: -10°   Ceiling: 5000
Heat Index:   Visibility: 10mi
Dew Point:   Wind: 14mph
Humidity: 85%   Direction: 130°SE
Pressure: 30.01"   Gusts: NA
Location:  48.632°N, 99.9505°W
Report Text: KRUG 280255Z AUTO 13012KT 10SM FEW006 SCT047 OVC050 M14/M16 A3001 RMK AO2
Loading
Personal Weather Stations






























Interactive Weather Map New forecast layout! Learn more

10-Day Weather Forecast

Advertisements
Track Severe Weather on mobile